Terminal Aerodrome Forecast
Issued by NWS Detroit/Pontiac, MI

Current Version | Previous Version | Text Only | Print | Product List | Glossary On
Versions: 1 2 3 4 5 6 7 8 9 10 11 12
000
FTUS43 KDTX 260535
TAFFNT
TAF
KFNT 260535Z 2606/2706 18005KT P6SM OVC070
     FM260700 20005KT 2SM TSRA OVC035CB
     FM261000 20007KT 4SM BR BKN035 OVC070
     FM261400 20010KT P6SM SCT070
     FM262000 22012KT P6SM BKN070=

USA.gov is the U.S. government's official web portal to all federal, state and local government web resources and services.